Capistrano, Brazil
Current Conditions -  °F | °C
As of 7:00 PM on Monday 24 Nov 2014 (Local Time) from SBFZ Reporting Station
Few Clouds Few Clouds  
Wind Chill: 81°   Ceiling: Unl
Heat Index: 84°   Visibility: 6mi
Dew Point: 70°   Wind: 13mph
Humidity: 70%   Direction: 80°E
Pressure: 29.88"   Gusts: NA
Location:  4.47°S, 38.9°W
Report Text: SBFZ 242200Z 08011KT 9999 FEW020 27/21 Q1012
Loading
Personal Weather Stations






























Interactive Weather Map New forecast layout! Learn more

10-Day Weather Forecast

Advertisements
Track Severe Weather on mobile